sensor_id;sensor_type;location;lat;lon;timestamp;P1;durP1;ratioP1;P2;durP2;ratioP2
69358;SDS011;56520;49.066;8.660;2023-02-04T00:01:16;5.78;;;2.10;;
69358;SDS011;56520;49.066;8.660;2023-02-04T00:03:41;6.07;;;2.60;;
69358;SDS011;56520;49.066;8.660;2023-02-04T00:06:06;6.00;;;2.75;;
69358;SDS011;56520;49.066;8.660;2023-02-04T00:08:32;5.25;;;2.03;;
69358;SDS011;56520;49.066;8.660;2023-02-04T00:10:57;5.20;;;2.15;;
69358;SDS011;56520;49.066;8.660;2023-02-04T00:13:23;5.32;;;1.88;;
69358;SDS011;56520;49.066;8.660;2023-02-04T00:15:48;5.13;;;2.05;;
69358;SDS011;56520;49.066;8.660;2023-02-04T00:18:14;4.68;;;2.00;;
69358;SDS011;56520;49.066;8.660;2023-02-04T00:20:39;5.65;;;1.98;;
69358;SDS011;56520;49.066;8.660;2023-02-04T00:23:04;5.28;;;2.15;;
69358;SDS011;56520;49.066;8.660;2023-02-04T00:25:30;6.45;;;1.98;;
69358;SDS011;56520;49.066;8.660;2023-02-04T00:27:55;6.50;;;2.40;;
69358;SDS011;56520;49.066;8.660;2023-02-04T00:30:21;5.38;;;2.20;;
69358;SDS011;56520;49.066;8.660;2023-02-04T00:32:46;5.95;;;1.77;;
69358;SDS011;56520;49.066;8.660;2023-02-04T00:35:12;6.40;;;1.90;;
69358;SDS011;56520;49.066;8.660;2023-02-04T00:37:37;5.88;;;2.35;;
69358;SDS011;56520;49.066;8.660;2023-02-04T00:40:03;6.35;;;1.88;;
69358;SDS011;56520;49.066;8.660;2023-02-04T00:42:28;6.07;;;2.28;;
69358;SDS011;56520;49.066;8.660;2023-02-04T00:44:54;5.00;;;1.73;;
69358;SDS011;56520;49.066;8.660;2023-02-04T00:47:19;6.50;;;2.22;;
69358;SDS011;56520;49.066;8.660;2023-02-04T00:49:45;5.65;;;2.10;;
69358;SDS011;56520;49.066;8.660;2023-02-04T00:52:10;5.57;;;1.98;;
69358;SDS011;56520;49.066;8.660;2023-02-04T00:54:36;6.13;;;2.17;;
69358;SDS011;56520;49.066;8.660;2023-02-04T00:57:01;7.32;;;2.95;;
69358;SDS011;56520;49.066;8.660;2023-02-04T00:59:27;5.72;;;2.15;;
69358;SDS011;56520;49.066;8.660;2023-02-04T01:01:52;6.22;;;2.03;;
69358;SDS011;56520;49.066;8.660;2023-02-04T01:04:18;5.65;;;2.10;;
69358;SDS011;56520;49.066;8.660;2023-02-04T01:06:43;4.90;;;1.70;;
69358;SDS011;56520;49.066;8.660;2023-02-04T01:09:09;7.78;;;1.92;;
69358;SDS011;56520;49.066;8.660;2023-02-04T01:11:34;4.45;;;1.35;;
69358;SDS011;56520;49.066;8.660;2023-02-04T01:14:00;5.30;;;1.20;;
69358;SDS011;56520;49.066;8.660;2023-02-04T01:16:26;3.28;;;1.10;;
69358;SDS011;56520;49.066;8.660;2023-02-04T01:18:52;2.78;;;1.02;;
69358;SDS011;56520;49.066;8.660;2023-02-04T01:21:19;2.78;;;0.80;;
69358;SDS011;56520;49.066;8.660;2023-02-04T01:23:48;2.17;;;0.98;;
69358;SDS011;56520;49.066;8.660;2023-02-04T01:26:14;2.33;;;0.90;;
69358;SDS011;56520;49.066;8.660;2023-02-04T01:28:40;1.90;;;0.70;;
69358;SDS011;56520;49.066;8.660;2023-02-04T01:31:06;4.20;;;0.88;;
69358;SDS011;56520;49.066;8.660;2023-02-04T01:33:31;1.27;;;0.60;;
69358;SDS011;56520;49.066;8.660;2023-02-04T01:35:56;2.25;;;0.77;;
69358;SDS011;56520;49.066;8.660;2023-02-04T01:38:22;2.88;;;0.80;;
69358;SDS011;56520;49.066;8.660;2023-02-04T01:40:47;1.48;;;0.57;;
69358;SDS011;56520;49.066;8.660;2023-02-04T01:43:13;1.02;;;0.55;;
69358;SDS011;56520;49.066;8.660;2023-02-04T01:45:39;2.45;;;1.13;;
69358;SDS011;56520;49.066;8.660;2023-02-04T01:48:04;2.92;;;0.80;;
69358;SDS011;56520;49.066;8.660;2023-02-04T01:50:31;1.75;;;0.80;;
69358;SDS011;56520;49.066;8.660;2023-02-04T01:52:57;2.17;;;0.80;;
69358;SDS011;56520;49.066;8.660;2023-02-04T01:55:25;1.70;;;0.60;;
69358;SDS011;56520;49.066;8.660;2023-02-04T01:57:52;1.95;;;0.68;;
69358;SDS011;56520;49.066;8.660;2023-02-04T02:00:27;2.42;;;0.63;;
69358;SDS011;56520;49.066;8.660;2023-02-04T02:02:55;1.98;;;0.70;;
69358;SDS011;56520;49.066;8.660;2023-02-04T02:05:30;1.67;;;0.65;;
69358;SDS011;56520;49.066;8.660;2023-02-04T02:08:01;1.90;;;0.65;;
69358;SDS011;56520;49.066;8.660;2023-02-04T02:10:28;1.42;;;0.60;;
69358;SDS011;56520;49.066;8.660;2023-02-04T02:12:54;2.22;;;0.60;;
69358;SDS011;56520;49.066;8.660;2023-02-04T02:15:21;1.83;;;0.63;;
69358;SDS011;56520;49.066;8.660;2023-02-04T02:17:47;1.63;;;0.80;;
69358;SDS011;56520;49.066;8.660;2023-02-04T02:20:14;0.63;;;0.35;;
69358;SDS011;56520;49.066;8.660;2023-02-04T02:25:15;1.83;;;0.45;;
69358;SDS011;56520;49.066;8.660;2023-02-04T02:27:40;1.65;;;0.60;;
69358;SDS011;56520;49.066;8.660;2023-02-04T02:30:06;2.78;;;0.82;;
69358;SDS011;56520;49.066;8.660;2023-02-04T02:32:34;1.23;;;0.50;;
69358;SDS011;56520;49.066;8.660;2023-02-04T02:35:00;4.15;;;0.88;;
69358;SDS011;56520;49.066;8.660;2023-02-04T02:37:26;3.15;;;0.90;;
69358;SDS011;56520;49.066;8.660;2023-02-04T02:39:52;2.17;;;0.80;;
69358;SDS011;56520;49.066;8.660;2023-02-04T02:42:17;2.45;;;0.88;;
69358;SDS011;56520;49.066;8.660;2023-02-04T02:44:49;1.35;;;0.50;;
69358;SDS011;56520;49.066;8.660;2023-02-04T02:47:16;2.03;;;0.63;;
69358;SDS011;56520;49.066;8.660;2023-02-04T02:49:45;2.17;;;0.52;;
69358;SDS011;56520;49.066;8.660;2023-02-04T02:52:12;2.70;;;0.95;;
69358;SDS011;56520;49.066;8.660;2023-02-04T02:54:39;1.77;;;0.50;;
69358;SDS011;56520;49.066;8.660;2023-02-04T02:57:15;0.95;;;0.60;;
69358;SDS011;56520;49.066;8.660;2023-02-04T02:59:43;2.55;;;0.93;;
69358;SDS011;56520;49.066;8.660;2023-02-04T03:02:09;0.70;;;0.40;;
69358;SDS011;56520;49.066;8.660;2023-02-04T03:04:38;3.63;;;0.80;;
69358;SDS011;56520;49.066;8.660;2023-02-04T03:07:09;2.85;;;0.80;;
69358;SDS011;56520;49.066;8.660;2023-02-04T03:09:36;2.15;;;0.65;;
69358;SDS011;56520;49.066;8.660;2023-02-04T03:12:02;2.00;;;0.60;;
69358;SDS011;56520;49.066;8.660;2023-02-04T03:14:29;2.85;;;0.75;;
69358;SDS011;56520;49.066;8.660;2023-02-04T03:16:55;1.80;;;0.52;;
69358;SDS011;56520;49.066;8.660;2023-02-04T03:19:22;4.05;;;1.17;;
69358;SDS011;56520;49.066;8.660;2023-02-04T03:21:49;2.83;;;0.60;;
69358;SDS011;56520;49.066;8.660;2023-02-04T03:24:15;5.10;;;0.98;;
69358;SDS011;56520;49.066;8.660;2023-02-04T03:26:41;4.25;;;0.98;;
69358;SDS011;56520;49.066;8.660;2023-02-04T03:29:07;5.40;;;1.00;;
69358;SDS011;56520;49.066;8.660;2023-02-04T03:31:33;4.90;;;1.10;;
69358;SDS011;56520;49.066;8.660;2023-02-04T03:33:59;2.92;;;0.90;;
69358;SDS011;56520;49.066;8.660;2023-02-04T03:36:25;3.45;;;0.82;;
69358;SDS011;56520;49.066;8.660;2023-02-04T03:38:50;5.10;;;1.00;;
69358;SDS011;56520;49.066;8.660;2023-02-04T03:41:16;2.03;;;0.68;;
69358;SDS011;56520;49.066;8.660;2023-02-04T03:43:42;3.63;;;0.70;;
69358;SDS011;56520;49.066;8.660;2023-02-04T03:46:07;1.80;;;0.68;;
69358;SDS011;56520;49.066;8.660;2023-02-04T03:48:33;6.38;;;1.10;;
69358;SDS011;56520;49.066;8.660;2023-02-04T03:50:58;1.58;;;0.68;;
69358;SDS011;56520;49.066;8.660;2023-02-04T03:53:23;3.65;;;1.00;;
69358;SDS011;56520;49.066;8.660;2023-02-04T03:55:49;4.80;;;1.30;;
69358;SDS011;56520;49.066;8.660;2023-02-04T03:58:14;4.47;;;1.00;;
69358;SDS011;56520;49.066;8.660;2023-02-04T04:00:40;3.75;;;0.95;;
69358;SDS011;56520;49.066;8.660;2023-02-04T04:03:05;2.60;;;0.93;;
69358;SDS011;56520;49.066;8.660;2023-02-04T04:05:30;3.42;;;0.90;;
69358;SDS011;56520;49.066;8.660;2023-02-04T04:07:56;7.13;;;1.08;;
69358;SDS011;56520;49.066;8.660;2023-02-04T04:10:23;6.43;;;1.63;;
69358;SDS011;56520;49.066;8.660;2023-02-04T04:12:49;6.82;;;1.13;;
69358;SDS011;56520;49.066;8.660;2023-02-04T04:15:14;7.70;;;1.30;;
69358;SDS011;56520;49.066;8.660;2023-02-04T04:17:40;4.05;;;1.08;;
69358;SDS011;56520;49.066;8.660;2023-02-04T04:20:05;4.53;;;1.15;;
69358;SDS011;56520;49.066;8.660;2023-02-04T04:22:31;3.95;;;1.20;;
69358;SDS011;56520;49.066;8.660;2023-02-04T04:24:57;7.30;;;1.30;;
69358;SDS011;56520;49.066;8.660;2023-02-04T04:27:23;4.18;;;1.38;;
69358;SDS011;56520;49.066;8.660;2023-02-04T04:29:49;4.57;;;1.48;;
69358;SDS011;56520;49.066;8.660;2023-02-04T04:32:15;6.28;;;1.30;;
69358;SDS011;56520;49.066;8.660;2023-02-04T04:34:40;5.75;;;1.08;;
69358;SDS011;56520;49.066;8.660;2023-02-04T04:37:06;4.10;;;1.00;;
69358;SDS011;56520;49.066;8.660;2023-02-04T04:39:31;3.38;;;1.20;;
69358;SDS011;56520;49.066;8.660;2023-02-04T04:41:57;5.80;;;1.52;;
69358;SDS011;56520;49.066;8.660;2023-02-04T04:44:22;3.45;;;1.00;;
69358;SDS011;56520;49.066;8.660;2023-02-04T04:46:47;3.08;;;1.08;;
69358;SDS011;56520;49.066;8.660;2023-02-04T04:49:13;4.88;;;1.17;;
69358;SDS011;56520;49.066;8.660;2023-02-04T04:51:40;5.93;;;1.30;;
69358;SDS011;56520;49.066;8.660;2023-02-04T04:54:05;3.67;;;1.13;;
69358;SDS011;56520;49.066;8.660;2023-02-04T04:56:31;4.18;;;1.17;;
69358;SDS011;56520;49.066;8.660;2023-02-04T04:58:57;3.13;;;0.90;;
69358;SDS011;56520;49.066;8.660;2023-02-04T05:01:22;5.18;;;1.05;;
69358;SDS011;56520;49.066;8.660;2023-02-04T05:03:48;3.22;;;0.93;;
69358;SDS011;56520;49.066;8.660;2023-02-04T05:06:13;3.50;;;1.13;;
69358;SDS011;56520;49.066;8.660;2023-02-04T05:08:39;4.78;;;1.30;;
69358;SDS011;56520;49.066;8.660;2023-02-04T05:11:05;5.32;;;1.10;;
69358;SDS011;56520;49.066;8.660;2023-02-04T05:13:30;3.60;;;1.20;;
69358;SDS011;56520;49.066;8.660;2023-02-04T05:15:56;3.35;;;1.50;;
69358;SDS011;56520;49.066;8.660;2023-02-04T05:18:21;3.20;;;1.40;;
69358;SDS011;56520;49.066;8.660;2023-02-04T05:20:46;5.65;;;1.60;;
69358;SDS011;56520;49.066;8.660;2023-02-04T05:23:12;4.47;;;1.50;;
69358;SDS011;56520;49.066;8.660;2023-02-04T05:25:37;4.10;;;1.40;;
69358;SDS011;56520;49.066;8.660;2023-02-04T05:28:03;4.82;;;1.50;;
69358;SDS011;56520;49.066;8.660;2023-02-04T05:30:28;4.03;;;1.40;;
69358;SDS011;56520;49.066;8.660;2023-02-04T05:32:54;6.63;;;1.67;;
69358;SDS011;56520;49.066;8.660;2023-02-04T05:35:19;3.97;;;1.08;;
69358;SDS011;56520;49.066;8.660;2023-02-04T05:37:45;3.42;;;1.27;;
69358;SDS011;56520;49.066;8.660;2023-02-04T05:40:10;4.53;;;1.38;;
69358;SDS011;56520;49.066;8.660;2023-02-04T05:42:36;5.60;;;2.00;;
69358;SDS011;56520;49.066;8.660;2023-02-04T05:45:02;6.28;;;2.28;;
69358;SDS011;56520;49.066;8.660;2023-02-04T05:47:28;5.30;;;1.63;;
69358;SDS011;56520;49.066;8.660;2023-02-04T05:49:53;4.13;;;1.45;;
69358;SDS011;56520;49.066;8.660;2023-02-04T05:52:19;4.95;;;1.50;;
69358;SDS011;56520;49.066;8.660;2023-02-04T05:54:44;3.92;;;1.50;;
69358;SDS011;56520;49.066;8.660;2023-02-04T05:57:10;4.97;;;1.90;;
69358;SDS011;56520;49.066;8.660;2023-02-04T05:59:35;3.42;;;1.10;;
69358;SDS011;56520;49.066;8.660;2023-02-04T06:02:01;5.13;;;1.52;;
69358;SDS011;56520;49.066;8.660;2023-02-04T06:04:26;3.80;;;1.20;;
69358;SDS011;56520;49.066;8.660;2023-02-04T06:06:51;3.17;;;1.10;;
69358;SDS011;56520;49.066;8.660;2023-02-04T06:09:17;3.33;;;1.10;;
69358;SDS011;56520;49.066;8.660;2023-02-04T06:11:42;7.20;;;1.60;;
69358;SDS011;56520;49.066;8.660;2023-02-04T06:14:08;5.93;;;1.33;;
69358;SDS011;56520;49.066;8.660;2023-02-04T06:16:34;5.35;;;1.10;;
69358;SDS011;56520;49.066;8.660;2023-02-04T06:19:05;4.30;;;1.40;;
69358;SDS011;56520;49.066;8.660;2023-02-04T06:21:31;4.57;;;1.63;;
69358;SDS011;56520;49.066;8.660;2023-02-04T06:23:56;5.38;;;1.30;;
69358;SDS011;56520;49.066;8.660;2023-02-04T06:26:21;3.45;;;1.20;;
69358;SDS011;56520;49.066;8.660;2023-02-04T06:28:47;2.10;;;0.85;;
69358;SDS011;56520;49.066;8.660;2023-02-04T06:31:12;2.80;;;1.00;;
69358;SDS011;56520;49.066;8.660;2023-02-04T06:33:38;2.45;;;0.90;;
69358;SDS011;56520;49.066;8.660;2023-02-04T06:36:03;3.78;;;1.27;;
69358;SDS011;56520;49.066;8.660;2023-02-04T06:38:29;2.97;;;1.13;;
69358;SDS011;56520;49.066;8.660;2023-02-04T06:40:54;4.40;;;1.42;;
69358;SDS011;56520;49.066;8.660;2023-02-04T06:43:20;3.78;;;1.20;;
69358;SDS011;56520;49.066;8.660;2023-02-04T06:45:46;2.75;;;1.10;;
69358;SDS011;56520;49.066;8.660;2023-02-04T06:48:12;3.33;;;1.23;;
69358;SDS011;56520;49.066;8.660;2023-02-04T06:50:37;3.17;;;1.10;;
69358;SDS011;56520;49.066;8.660;2023-02-04T06:53:02;4.97;;;1.40;;
69358;SDS011;56520;49.066;8.660;2023-02-04T06:55:28;5.20;;;1.42;;
69358;SDS011;56520;49.066;8.660;2023-02-04T06:57:53;5.72;;;1.45;;
69358;SDS011;56520;49.066;8.660;2023-02-04T07:00:19;4.47;;;1.70;;
69358;SDS011;56520;49.066;8.660;2023-02-04T07:02:44;4.40;;;1.50;;
69358;SDS011;56520;49.066;8.660;2023-02-04T07:05:10;6.00;;;1.80;;
69358;SDS011;56520;49.066;8.660;2023-02-04T07:07:36;4.63;;;1.35;;
69358;SDS011;56520;49.066;8.660;2023-02-04T07:10:02;5.15;;;1.30;;
69358;SDS011;56520;49.066;8.660;2023-02-04T07:12:28;4.18;;;1.55;;
69358;SDS011;56520;49.066;8.660;2023-02-04T07:14:53;4.25;;;1.27;;
69358;SDS011;56520;49.066;8.660;2023-02-04T07:17:19;3.33;;;1.25;;
69358;SDS011;56520;49.066;8.660;2023-02-04T07:19:44;3.10;;;1.15;;
69358;SDS011;56520;49.066;8.660;2023-02-04T07:22:10;2.47;;;1.00;;
69358;SDS011;56520;49.066;8.660;2023-02-04T07:24:35;4.45;;;1.33;;
69358;SDS011;56520;49.066;8.660;2023-02-04T07:27:00;3.25;;;1.38;;
69358;SDS011;56520;49.066;8.660;2023-02-04T07:29:26;3.33;;;1.10;;
69358;SDS011;56520;49.066;8.660;2023-02-04T07:31:51;3.75;;;1.30;;
69358;SDS011;56520;49.066;8.660;2023-02-04T07:34:17;2.75;;;1.08;;
69358;SDS011;56520;49.066;8.660;2023-02-04T07:36:43;3.10;;;1.13;;
69358;SDS011;56520;49.066;8.660;2023-02-04T07:39:11;2.88;;;0.93;;
69358;SDS011;56520;49.066;8.660;2023-02-04T07:41:36;5.55;;;1.38;;
69358;SDS011;56520;49.066;8.660;2023-02-04T07:44:02;5.00;;;1.50;;
69358;SDS011;56520;49.066;8.660;2023-02-04T07:46:28;4.32;;;1.30;;
69358;SDS011;56520;49.066;8.660;2023-02-04T07:48:53;3.13;;;1.10;;
69358;SDS011;56520;49.066;8.660;2023-02-04T07:51:19;2.92;;;0.95;;
69358;SDS011;56520;49.066;8.660;2023-02-04T07:53:44;3.30;;;1.23;;
69358;SDS011;56520;49.066;8.660;2023-02-04T07:56:10;3.75;;;1.20;;
69358;SDS011;56520;49.066;8.660;2023-02-04T07:58:35;4.28;;;1.30;;
69358;SDS011;56520;49.066;8.660;2023-02-04T08:01:01;2.65;;;0.98;;
69358;SDS011;56520;49.066;8.660;2023-02-04T08:03:26;3.75;;;1.48;;
69358;SDS011;56520;49.066;8.660;2023-02-04T08:05:52;3.35;;;1.15;;
69358;SDS011;56520;49.066;8.660;2023-02-04T08:08:18;4.35;;;1.30;;
69358;SDS011;56520;49.066;8.660;2023-02-04T08:10:44;4.82;;;1.42;;
69358;SDS011;56520;49.066;8.660;2023-02-04T08:13:09;6.85;;;1.80;;
69358;SDS011;56520;49.066;8.660;2023-02-04T08:15:35;4.78;;;1.70;;
69358;SDS011;56520;49.066;8.660;2023-02-04T08:18:00;4.78;;;1.40;;
69358;SDS011;56520;49.066;8.660;2023-02-04T08:20:26;2.97;;;1.10;;
69358;SDS011;56520;49.066;8.660;2023-02-04T08:22:52;3.78;;;1.38;;
69358;SDS011;56520;49.066;8.660;2023-02-04T08:25:17;4.35;;;1.33;;
69358;SDS011;56520;49.066;8.660;2023-02-04T08:27:43;4.38;;;1.38;;
69358;SDS011;56520;49.066;8.660;2023-02-04T08:30:08;4.75;;;1.27;;
69358;SDS011;56520;49.066;8.660;2023-02-04T08:32:35;3.03;;;1.10;;
69358;SDS011;56520;49.066;8.660;2023-02-04T08:35:02;3.22;;;1.08;;
69358;SDS011;56520;49.066;8.660;2023-02-04T08:37:28;4.82;;;1.40;;
69358;SDS011;56520;49.066;8.660;2023-02-04T08:39:53;4.32;;;1.52;;
69358;SDS011;56520;49.066;8.660;2023-02-04T08:42:19;5.53;;;1.70;;
69358;SDS011;56520;49.066;8.660;2023-02-04T08:44:45;5.25;;;1.65;;
69358;SDS011;56520;49.066;8.660;2023-02-04T08:47:11;6.10;;;1.67;;
69358;SDS011;56520;49.066;8.660;2023-02-04T08:49:36;5.55;;;1.60;;
69358;SDS011;56520;49.066;8.660;2023-02-04T08:52:04;6.75;;;1.52;;
69358;SDS011;56520;49.066;8.660;2023-02-04T08:54:32;6.00;;;1.90;;
69358;SDS011;56520;49.066;8.660;2023-02-04T08:56:58;6.53;;;1.73;;
69358;SDS011;56520;49.066;8.660;2023-02-04T08:59:23;5.45;;;1.67;;
69358;SDS011;56520;49.066;8.660;2023-02-04T09:01:49;4.68;;;1.65;;
69358;SDS011;56520;49.066;8.660;2023-02-04T09:04:20;7.55;;;1.70;;
69358;SDS011;56520;49.066;8.660;2023-02-04T09:06:46;4.32;;;1.50;;
69358;SDS011;56520;49.066;8.660;2023-02-04T09:09:13;4.97;;;2.20;;
69358;SDS011;56520;49.066;8.660;2023-02-04T09:11:39;8.27;;;2.00;;
69358;SDS011;56520;49.066;8.660;2023-02-04T09:14:05;8.82;;;1.70;;
69358;SDS011;56520;49.066;8.660;2023-02-04T09:16:31;6.10;;;1.95;;
69358;SDS011;56520;49.066;8.660;2023-02-04T09:18:56;6.28;;;1.90;;
69358;SDS011;56520;49.066;8.660;2023-02-04T09:21:28;6.88;;;1.98;;
69358;SDS011;56520;49.066;8.660;2023-02-04T09:23:54;6.90;;;1.60;;
69358;SDS011;56520;49.066;8.660;2023-02-04T09:26:19;8.85;;;2.10;;
69358;SDS011;56520;49.066;8.660;2023-02-04T09:28:45;7.72;;;2.03;;
69358;SDS011;56520;49.066;8.660;2023-02-04T09:31:12;5.72;;;1.38;;
69358;SDS011;56520;49.066;8.660;2023-02-04T09:33:38;5.50;;;1.70;;
69358;SDS011;56520;49.066;8.660;2023-02-04T09:36:03;9.50;;;2.28;;
69358;SDS011;56520;49.066;8.660;2023-02-04T09:38:29;5.75;;;1.90;;
69358;SDS011;56520;49.066;8.660;2023-02-04T09:41:05;6.07;;;2.10;;
69358;SDS011;56520;49.066;8.660;2023-02-04T09:43:37;8.07;;;2.33;;
69358;SDS011;56520;49.066;8.660;2023-02-04T09:46:04;6.22;;;1.90;;
69358;SDS011;56520;49.066;8.660;2023-02-04T09:48:31;5.22;;;2.17;;
69358;SDS011;56520;49.066;8.660;2023-02-04T09:51:04;8.88;;;2.13;;
69358;SDS011;56520;49.066;8.660;2023-02-04T09:53:31;9.57;;;2.15;;
69358;SDS011;56520;49.066;8.660;2023-02-04T09:55:58;7.53;;;2.22;;
69358;SDS011;56520;49.066;8.660;2023-02-04T09:58:32;7.95;;;1.90;;
69358;SDS011;56520;49.066;8.660;2023-02-04T10:01:00;11.43;;;2.22;;
69358;SDS011;56520;49.066;8.660;2023-02-04T10:03:36;7.85;;;2.22;;
69358;SDS011;56520;49.066;8.660;2023-02-04T10:06:10;8.00;;;1.83;;
69358;SDS011;56520;49.066;8.660;2023-02-04T10:08:36;7.00;;;1.77;;
69358;SDS011;56520;49.066;8.660;2023-02-04T10:11:04;9.30;;;3.25;;
69358;SDS011;56520;49.066;8.660;2023-02-04T10:13:34;8.10;;;1.80;;
69358;SDS011;56520;49.066;8.660;2023-02-04T10:16:02;6.80;;;1.73;;
69358;SDS011;56520;49.066;8.660;2023-02-04T10:18:34;6.50;;;2.30;;
69358;SDS011;56520;49.066;8.660;2023-02-04T10:21:07;7.65;;;1.60;;
69358;SDS011;56520;49.066;8.660;2023-02-04T10:26:04;5.30;;;1.20;;
69358;SDS011;56520;49.066;8.660;2023-02-04T10:28:35;7.53;;;1.63;;
69358;SDS011;56520;49.066;8.660;2023-02-04T10:31:01;9.35;;;1.92;;
69358;SDS011;56520;49.066;8.660;2023-02-04T10:33:27;8.80;;;2.33;;
69358;SDS011;56520;49.066;8.660;2023-02-04T10:35:54;6.85;;;1.85;;
69358;SDS011;56520;49.066;8.660;2023-02-04T10:38:20;6.75;;;1.48;;
69358;SDS011;56520;49.066;8.660;2023-02-04T10:40:46;9.05;;;1.92;;
69358;SDS011;56520;49.066;8.660;2023-02-04T10:43:21;9.50;;;1.85;;
69358;SDS011;56520;49.066;8.660;2023-02-04T10:45:53;8.75;;;2.38;;
69358;SDS011;56520;49.066;8.660;2023-02-04T10:48:21;9.65;;;1.88;;
69358;SDS011;56520;49.066;8.660;2023-02-04T10:50:46;10.98;;;1.80;;
69358;SDS011;56520;49.066;8.660;2023-02-04T10:53:19;6.97;;;1.58;;
69358;SDS011;56520;49.066;8.660;2023-02-04T10:56:09;10.35;;;1.83;;
69358;SDS011;56520;49.066;8.660;2023-02-04T10:58:40;5.55;;;1.50;;
69358;SDS011;56520;49.066;8.660;2023-02-04T11:01:13;11.30;;;2.10;;
69358;SDS011;56520;49.066;8.660;2023-02-04T11:03:41;8.20;;;1.42;;
69358;SDS011;56520;49.066;8.660;2023-02-04T11:06:11;5.53;;;1.42;;
69358;SDS011;56520;49.066;8.660;2023-02-04T11:08:39;9.00;;;1.73;;
69358;SDS011;56520;49.066;8.660;2023-02-04T11:26:47;9.77;;;1.70;;
69358;SDS011;56520;49.066;8.660;2023-02-04T11:29:24;6.97;;;1.30;;
69358;SDS011;56520;49.066;8.660;2023-02-04T11:39:27;10.55;;;2.20;;
69358;SDS011;56520;49.066;8.660;2023-02-04T11:41:53;7.07;;;1.67;;
69358;SDS011;56520;49.066;8.660;2023-02-04T11:44:19;10.45;;;1.40;;
69358;SDS011;56520;49.066;8.660;2023-02-04T11:46:53;10.88;;;1.27;;
69358;SDS011;56520;49.066;8.660;2023-02-04T11:49:20;8.07;;;2.03;;
69358;SDS011;56520;49.066;8.660;2023-02-04T11:51:47;3.92;;;1.38;;
69358;SDS011;56520;49.066;8.660;2023-02-04T11:54:13;6.15;;;1.63;;
69358;SDS011;56520;49.066;8.660;2023-02-04T11:56:43;6.30;;;1.33;;
69358;SDS011;56520;49.066;8.660;2023-02-04T11:59:09;8.50;;;1.48;;
69358;SDS011;56520;49.066;8.660;2023-02-04T12:01:38;8.25;;;1.42;;
69358;SDS011;56520;49.066;8.660;2023-02-04T12:04:20;5.57;;;1.50;;
69358;SDS011;56520;49.066;8.660;2023-02-04T12:07:01;8.40;;;1.48;;
69358;SDS011;56520;49.066;8.660;2023-02-04T12:09:28;8.05;;;1.60;;
69358;SDS011;56520;49.066;8.660;2023-02-04T12:11:56;4.28;;;1.17;;
69358;SDS011;56520;49.066;8.660;2023-02-04T12:14:27;7.43;;;1.30;;
69358;SDS011;56520;49.066;8.660;2023-02-04T12:16:56;7.85;;;1.45;;
69358;SDS011;56520;49.066;8.660;2023-02-04T12:19:22;2.50;;;0.95;;
69358;SDS011;56520;49.066;8.660;2023-02-04T12:21:48;4.75;;;0.85;;
69358;SDS011;56520;49.066;8.660;2023-02-04T12:24:13;4.32;;;1.13;;
69358;SDS011;56520;49.066;8.660;2023-02-04T12:26:39;3.72;;;1.02;;
69358;SDS011;56520;49.066;8.660;2023-02-04T12:29:04;7.45;;;1.55;;
69358;SDS011;56520;49.066;8.660;2023-02-04T12:31:30;7.07;;;1.20;;
69358;SDS011;56520;49.066;8.660;2023-02-04T12:33:57;5.72;;;1.48;;
69358;SDS011;56520;49.066;8.660;2023-02-04T12:36:22;4.38;;;1.00;;
69358;SDS011;56520;49.066;8.660;2023-02-04T12:38:48;4.68;;;1.13;;
69358;SDS011;56520;49.066;8.660;2023-02-04T12:41:17;5.28;;;1.00;;
69358;SDS011;56520;49.066;8.660;2023-02-04T12:43:43;2.63;;;0.90;;
69358;SDS011;56520;49.066;8.660;2023-02-04T12:46:09;5.20;;;0.98;;
69358;SDS011;56520;49.066;8.660;2023-02-04T12:48:35;3.10;;;0.77;;
69358;SDS011;56520;49.066;8.660;2023-02-04T12:51:04;4.43;;;0.82;;
69358;SDS011;56520;49.066;8.660;2023-02-04T12:53:30;4.68;;;0.98;;
69358;SDS011;56520;49.066;8.660;2023-02-04T12:55:56;4.03;;;1.00;;
69358;SDS011;56520;49.066;8.660;2023-02-04T12:58:21;7.30;;;1.30;;
69358;SDS011;56520;49.066;8.660;2023-02-04T13:00:46;12.88;;;2.90;;
69358;SDS011;56520;49.066;8.660;2023-02-04T13:03:15;9.88;;;2.13;;
69358;SDS011;56520;49.066;8.660;2023-02-04T13:05:40;12.77;;;2.00;;
69358;SDS011;56520;49.066;8.660;2023-02-04T13:08:06;8.98;;;2.00;;
69358;SDS011;56520;49.066;8.660;2023-02-04T13:10:31;9.55;;;1.70;;
69358;SDS011;56520;49.066;8.660;2023-02-04T13:12:57;6.10;;;1.63;;
69358;SDS011;56520;49.066;8.660;2023-02-04T13:15:24;9.25;;;1.80;;
69358;SDS011;56520;49.066;8.660;2023-02-04T13:17:50;5.85;;;1.60;;
69358;SDS011;56520;49.066;8.660;2023-02-04T13:20:15;6.10;;;1.67;;
69358;SDS011;56520;49.066;8.660;2023-02-04T13:22:41;3.70;;;1.42;;
69358;SDS011;56520;49.066;8.660;2023-02-04T13:25:06;6.18;;;1.50;;
69358;SDS011;56520;49.066;8.660;2023-02-04T13:27:33;6.05;;;1.52;;
69358;SDS011;56520;49.066;8.660;2023-02-04T13:29:58;4.05;;;1.00;;
69358;SDS011;56520;49.066;8.660;2023-02-04T13:32:24;8.35;;;2.03;;
69358;SDS011;56520;49.066;8.660;2023-02-04T13:34:49;5.03;;;1.13;;
69358;SDS011;56520;49.066;8.660;2023-02-04T13:37:18;6.15;;;1.27;;
69358;SDS011;56520;49.066;8.660;2023-02-04T13:39:43;10.43;;;2.17;;
69358;SDS011;56520;49.066;8.660;2023-02-04T13:42:09;10.98;;;1.75;;
69358;SDS011;56520;49.066;8.660;2023-02-04T13:44:34;10.98;;;1.95;;
69358;SDS011;56520;49.066;8.660;2023-02-04T13:46:59;6.22;;;1.77;;
69358;SDS011;56520;49.066;8.660;2023-02-04T13:49:25;10.25;;;1.50;;
69358;SDS011;56520;49.066;8.660;2023-02-04T13:51:50;10.52;;;1.98;;
69358;SDS011;56520;49.066;8.660;2023-02-04T13:54:16;8.90;;;2.00;;
69358;SDS011;56520;49.066;8.660;2023-02-04T13:56:41;10.77;;;1.98;;
69358;SDS011;56520;49.066;8.660;2023-02-04T13:59:09;9.05;;;2.40;;
69358;SDS011;56520;49.066;8.660;2023-02-04T14:01:35;7.63;;;1.70;;
69358;SDS011;56520;49.066;8.660;2023-02-04T14:04:01;7.97;;;1.95;;
69358;SDS011;56520;49.066;8.660;2023-02-04T14:06:26;7.15;;;1.70;;
69358;SDS011;56520;49.066;8.660;2023-02-04T14:09:00;9.07;;;2.40;;
69358;SDS011;56520;49.066;8.660;2023-02-04T14:11:26;7.55;;;1.60;;
69358;SDS011;56520;49.066;8.660;2023-02-04T14:13:51;10.13;;;1.75;;
69358;SDS011;56520;49.066;8.660;2023-02-04T14:16:17;9.68;;;1.65;;
69358;SDS011;56520;49.066;8.660;2023-02-04T14:18:42;6.97;;;1.98;;
69358;SDS011;56520;49.066;8.660;2023-02-04T14:21:08;9.82;;;1.98;;
69358;SDS011;56520;49.066;8.660;2023-02-04T14:23:33;9.27;;;1.80;;
69358;SDS011;56520;49.066;8.660;2023-02-04T14:25:58;9.98;;;1.10;;
69358;SDS011;56520;49.066;8.660;2023-02-04T14:28:24;7.43;;;1.73;;
69358;SDS011;56520;49.066;8.660;2023-02-04T14:30:50;7.15;;;1.35;;
69358;SDS011;56520;49.066;8.660;2023-02-04T14:33:15;6.80;;;1.63;;
69358;SDS011;56520;49.066;8.660;2023-02-04T14:35:42;8.38;;;1.60;;
69358;SDS011;56520;49.066;8.660;2023-02-04T14:38:07;5.10;;;1.55;;
69358;SDS011;56520;49.066;8.660;2023-02-04T14:40:35;6.80;;;1.70;;
69358;SDS011;56520;49.066;8.660;2023-02-04T14:43:00;4.50;;;0.98;;
69358;SDS011;56520;49.066;8.660;2023-02-04T14:45:26;5.97;;;1.20;;
69358;SDS011;56520;49.066;8.660;2023-02-04T14:47:51;5.97;;;1.30;;
69358;SDS011;56520;49.066;8.660;2023-02-04T14:50:20;6.43;;;1.35;;
69358;SDS011;56520;49.066;8.660;2023-02-04T14:52:51;6.30;;;1.50;;
69358;SDS011;56520;49.066;8.660;2023-02-04T14:55:20;5.68;;;1.50;;
69358;SDS011;56520;49.066;8.660;2023-02-04T14:57:49;5.40;;;1.38;;
69358;SDS011;56520;49.066;8.660;2023-02-04T15:00:15;5.00;;;1.23;;
69358;SDS011;56520;49.066;8.660;2023-02-04T15:02:41;8.23;;;1.20;;
69358;SDS011;56520;49.066;8.660;2023-02-04T15:05:07;6.03;;;1.20;;
69358;SDS011;56520;49.066;8.660;2023-02-04T15:07:35;4.85;;;1.30;;
69358;SDS011;56520;49.066;8.660;2023-02-04T15:10:01;7.43;;;1.88;;
69358;SDS011;56520;49.066;8.660;2023-02-04T15:12:27;6.82;;;1.83;;